EA1JAY-2
43.29.33N 005.26.78W
IN73GL aprs.fi
zuletzt gehoert:
2022-07-01T04:45:03Z
zuerst gehoert:
2020-02-23T18:28:32Z

APRS Villaviciosa [IN73GL], 2 Stunde(n), EA1JAY-2 [07:39:09, 0s].
EA1HWD 43.28.96N 005.26.30WIN73GL 0.495km 153°SSE05:31:35ZMMDVM MMDVM HS Hat 434.2500/434.2500 CC1
EA1FHR 43.28.72N 005.26.41WIN73GL 0.888km 176°S05:30:29ZMMDVM MMDVM HS Hat 439.1500/439.1500 CC1
EA1JW 43.31.35N 005.28.83WIN73GM 5.097km 321°NW05:31:44ZMMDVM MMDVM HS Hat 436.5000/436.5000 CC1(3EA1JW-3)
EB1GEM 43.30.00N 005.36.07WIN73EM 12.995km 277°W05:39:04ZWX3in1Plus2.0 U=13.3V,T=??.?C/??.?F(3EB1GEM-3)
EA1JBU 43.30.80N 005.16.20WIN73IM 14.104km 78°ENE05:30:05ZEA1JBU(3EA1JBU-2)
EA1JBE 43.30.90N 005.16.15WIN73IM 14.222km 77°ENE05:36:34ZMAIN QTH http://qrz.com/db/ea1jbe(3EA1JBE-1)
MAIN QTH http://qrz.com/db/ea1jbe(2EA1JBE-13)
EA4ACU 43.29.56N 005.38.92WIN73EL 16.767km 272°W05:32:11ZMMDVM MMDVM HS Hat 432.7000/432.7000 CC1(3EA4ACU-1)
EA1DZR 43.31.47N 005.40.00WIN73DM 18.681km 283°WNW05:32:02ZMMDVM DV ADER 434.3500/434.3500 CC1(3EA1DZR-4)
MMDVM DVMega 431.1000/431.1000 CC1(2EA1DZR-1)
MMDVM MMDVM HS Hat 432.1000/432.1000 CC2(2EA1DZR-2)
ED1ZAS 43.27.52N 005.40.17WIN73DL 18.696km 261°W05:30:12ZRD985 438.2250/430.6250 CC1
EA1FLQ 43.22.00N 005.36.35WIN73EI 18.844km 225°SW05:30:52ZMMDVM DVMega 430.9750/430.9750 CC1
ED1ZAE 43.27.99N 005.40.54WIN73DL 19.067km 263°W05:24:25Z400 M. PICO SAN MARTIN (GIJON) 13.3V,16.4C(3ED1ZAE-3)
EA1IEJ 43.31.83N 005.40.22WIN73DM 19.127km 285°WNW05:32:08ZMMDVM DMO 222.3400/222.3400 CC1(3EA1IEJ-11)
LEEL 43.32.98N 005.41.71WIN73DN 21.659km 289°WNW05:30:04ZHelipuerto de El Musel: LEAS 010430Z 19005KT CAVOK 13/11 Q1019 NOSIG=
EB1TK 43.32.22N 005.42.32WIN73DM 22.031km 285°WNW05:30:15ZWind 215°/004kn, Böen bis 007kn, Temp 13.33c, Regen 0.0mm, letzte 24h 0.0mm, seit 0h 0.0mm, Baro 1022.9h, Hum: 88%(3EB1TK-13)
EA1IPU 43.26.21N 005.46.62WIN73CK 27.659km 259°W05:31:19ZMMDVM MMDVM HS Hat 439.8000/439.8000 CC1(3EA1IPU-1)
LEMR 43.25.83N 005.49.60WIN73CK 31.746km 259°W05:30:04ZAerodromo de la Morgal (123.500MHz): LEAS 010430Z 19005KT CAVOK 13/11 Q1019 NOSIG=
LEGM 43.26.15N 005.49.84WIN73CK 31.934km 260°W05:30:03ZHelipuerto de La Morgal (123.500MHz): LEAS 010430Z 19005KT CAVOK 13/11 Q1019 NOSIG=
ED1ZBF 43.19.16N 005.06.74WIN73KH 32.402km 125°SE05:30:11ZRD625 438.4750/430.8750 CC1
LEHU 43.22.63N 005.49.57WIN73CJ 33.396km 249°WSW05:30:03ZHelipuerto del HUCA: LEAS 010430Z 19005KT CAVOK 13/11 Q1019 NOSIG=
33D00 43.21.63N 005.51.13WIN73BI 36.031km 247°WSW05:01:42Z33-D-00 Protección Civil REMER / Delegación del Gobierno en Asturias
EA1JAY 43.21.54N 005.51.34WIN73BI 36.369km 247°WSW05:30:05ZEA1JAY(3EA1JAY-2)
434.525MHz Nodo TETRA DMO(2EA1JAY-4)
EA1L 43.20.38N 005.51.13WIN73BI 37.003km 244°WSW05:30:55ZWind 083°/000kn, Böen bis 000kn, Temp 12.22c, Regen 0.0mm, letzte 24h 0.0mm, seit 0h 0.0mm, Baro 1018.3h, Hum: 0%(3EA1L-13)
ea1l@ure.es V=13.4V(2EA1L)
ED1ZAU 43.23.04N 005.52.75WIN73BJ 37.171km 252°WSW05:30:12ZRD625 438.5000/430.9000 CC1
EA1HJA 43.21.47N 005.52.09WIN73BI 37.343km 248°WSW05:38:46Z IN73FL WX3IN1+ 2.0 - V=13.2V,TX TEMP=28.9C(3EA1HJA-2)
IN73FL WX3IN1+ 2.0 - V=14.0V,TX TEMP=44.6C(2EA1HJA)
EA1HWX 43.19.28N 005.50.98WIN73BH 37.771km 241°WSW05:31:49ZDMO - UHF 439.7250/431.0000 CC11(3EA1HWX-2)
MMDVM DMO 222.3400/222.3400 CC1(2EA1HWX-10)
EA1AHA 43.32.72N 005.54.38WIN73BN 38.073km 280°W05:31:05ZWind 000°/000kn, Böen bis 000kn, Temp 11.67c, Regen 0.0mm, letzte 24h 0.0mm, seit 0h 0.0mm, Baro 1021.5h, Hum: 88%(3EA1AHA-13)
EA1IMW 43.14.36N 005.46.93WIN73CF 38.933km 225°SW05:31:53ZGRUPO RADIO GALENA (GRG) 430.4500/430.4500 CC1(3EA1IMW-1)
EB1DGC 43.12.60N 005.45.59WIN73CF 40.131km 220°SW05:30:33ZMMDVM MMDVM HS Hat 433.4500/433.4500 CC1
ED1ZAY 43.29.47N 005.56.54WIN73AL 40.444km 271°W05:30:13ZRD625 438.3000/430.7000 CC1
EA1JBL 43.12.28N 005.47.42WIN73CE 42.183km 222°SW05:31:41ZMMDVM DVMega 435.3000/435.3000 CC1
EA1HWA 43.12.00N 005.47.40WIN73CE 42.558km 222°SW05:31:28ZMMDVM MMDVM HS Hat 433.4500/433.4500 CC1
ED1ZAD 43.07.90N 005.38.52WIN73ED 42.667km 202°SSW05:26:49ZED1ZAD-3 APRS Digi/Igate(3ED1ZAD-3)
EA1RCG 43.09.45N 005.49.78WIN73CD 48.229km 221°SW05:30:22ZGRUPO RADIO GALENA (GRG) 430.4500/430.4500 CC1(3EA1RCG-3)

aprs.pl 5.0.011w DL3EL © 2006-2021 [3537151]